sensor_id;sensor_type;location;lat;lon;timestamp;temperature;humidity
16158;DHT22;8184;60.256;18.694;2023-03-21T00:00:42;-1.00;99.90
16158;DHT22;8184;60.256;18.694;2023-03-21T00:03:10;-1.00;99.90
16158;DHT22;8184;60.256;18.694;2023-03-21T00:05:40;-1.00;99.90
16158;DHT22;8184;60.256;18.694;2023-03-21T00:08:09;-0.90;99.90
16158;DHT22;8184;60.256;18.694;2023-03-21T00:10:37;-0.90;99.90
16158;DHT22;8184;60.256;18.694;2023-03-21T00:13:09;-1.00;99.90
16158;DHT22;8184;60.256;18.694;2023-03-21T00:15:39;-1.00;99.90
16158;DHT22;8184;60.256;18.694;2023-03-21T00:18:31;-1.00;99.90
16158;DHT22;8184;60.256;18.694;2023-03-21T00:21:04;-1.10;99.90
16158;DHT22;8184;60.256;18.694;2023-03-21T00:23:53;-1.20;99.90
16158;DHT22;8184;60.256;18.694;2023-03-21T00:26:21;-1.10;99.90
16158;DHT22;8184;60.256;18.694;2023-03-21T00:28:49;-1.10;99.90
16158;DHT22;8184;60.256;18.694;2023-03-21T00:31:17;-1.10;99.90
16158;DHT22;8184;60.256;18.694;2023-03-21T00:33:46;-1.10;99.90
16158;DHT22;8184;60.256;18.694;2023-03-21T00:36:15;-1.10;99.90
16158;DHT22;8184;60.256;18.694;2023-03-21T00:38:44;-1.10;99.90
16158;DHT22;8184;60.256;18.694;2023-03-21T00:41:12;-1.10;99.90
16158;DHT22;8184;60.256;18.694;2023-03-21T00:44:01;-1.10;99.90
16158;DHT22;8184;60.256;18.694;2023-03-21T00:46:29;-1.20;99.90
16158;DHT22;8184;60.256;18.694;2023-03-21T00:49:11;-1.20;99.90
16158;DHT22;8184;60.256;18.694;2023-03-21T00:51:40;-1.20;99.90
16158;DHT22;8184;60.256;18.694;2023-03-21T00:54:10;-1.20;99.90
16158;DHT22;8184;60.256;18.694;2023-03-21T00:56:38;-1.30;99.90
16158;DHT22;8184;60.256;18.694;2023-03-21T00:59:07;-1.30;99.90
16158;DHT22;8184;60.256;18.694;2023-03-21T01:01:35;-1.30;99.90
16158;DHT22;8184;60.256;18.694;2023-03-21T01:04:04;-1.20;99.90
16158;DHT22;8184;60.256;18.694;2023-03-21T01:06:41;-1.20;99.90
16158;DHT22;8184;60.256;18.694;2023-03-21T01:09:14;-1.20;99.90
16158;DHT22;8184;60.256;18.694;2023-03-21T01:11:43;-1.30;99.90
16158;DHT22;8184;60.256;18.694;2023-03-21T01:14:12;-1.30;99.90
16158;DHT22;8184;60.256;18.694;2023-03-21T01:16:48;-1.30;99.90
16158;DHT22;8184;60.256;18.694;2023-03-21T01:19:18;-1.40;99.90
16158;DHT22;8184;60.256;18.694;2023-03-21T01:21:53;-1.50;99.90
16158;DHT22;8184;60.256;18.694;2023-03-21T01:24:23;-1.40;99.90
16158;DHT22;8184;60.256;18.694;2023-03-21T01:26:51;-1.40;99.90
16158;DHT22;8184;60.256;18.694;2023-03-21T01:29:19;-1.40;99.90
16158;DHT22;8184;60.256;18.694;2023-03-21T01:31:50;-1.50;99.90
16158;DHT22;8184;60.256;18.694;2023-03-21T01:34:19;-1.40;99.90
16158;DHT22;8184;60.256;18.694;2023-03-21T01:36:47;-1.50;99.90
16158;DHT22;8184;60.256;18.694;2023-03-21T01:39:16;-1.40;99.90
16158;DHT22;8184;60.256;18.694;2023-03-21T01:41:45;-1.50;99.90
16158;DHT22;8184;60.256;18.694;2023-03-21T01:44:14;-1.50;99.90
16158;DHT22;8184;60.256;18.694;2023-03-21T01:46:43;-1.50;99.90
16158;DHT22;8184;60.256;18.694;2023-03-21T01:49:35;-1.50;99.90
16158;DHT22;8184;60.256;18.694;2023-03-21T01:52:06;-1.50;99.90
16158;DHT22;8184;60.256;18.694;2023-03-21T01:54:44;-1.50;99.90
16158;DHT22;8184;60.256;18.694;2023-03-21T01:57:15;-1.50;99.90
16158;DHT22;8184;60.256;18.694;2023-03-21T01:59:46;-1.60;99.90
16158;DHT22;8184;60.256;18.694;2023-03-21T02:02:16;-1.50;99.90
16158;DHT22;8184;60.256;18.694;2023-03-21T02:04:48;-1.50;99.90
16158;DHT22;8184;60.256;18.694;2023-03-21T02:07:23;-1.60;99.90
16158;DHT22;8184;60.256;18.694;2023-03-21T02:09:51;-1.60;99.90
16158;DHT22;8184;60.256;18.694;2023-03-21T02:12:21;-1.50;99.90
16158;DHT22;8184;60.256;18.694;2023-03-21T02:14:50;-1.50;99.90
16158;DHT22;8184;60.256;18.694;2023-03-21T02:17:23;-1.50;99.90
16158;DHT22;8184;60.256;18.694;2023-03-21T02:22:45;-1.60;99.90
16158;DHT22;8184;60.256;18.694;2023-03-21T02:28:15;-1.50;99.90
16158;DHT22;8184;60.256;18.694;2023-03-21T02:30:54;-1.60;99.90
16158;DHT22;8184;60.256;18.694;2023-03-21T02:33:53;-1.50;99.90
16158;DHT22;8184;60.256;18.694;2023-03-21T02:36:29;-1.50;99.90
16158;DHT22;8184;60.256;18.694;2023-03-21T02:39:03;-1.50;99.90
16158;DHT22;8184;60.256;18.694;2023-03-21T02:41:36;-1.50;99.90
16158;DHT22;8184;60.256;18.694;2023-03-21T02:44:09;-1.50;99.90
16158;DHT22;8184;60.256;18.694;2023-03-21T02:46:41;-1.60;99.90
16158;DHT22;8184;60.256;18.694;2023-03-21T02:49:20;-1.60;99.90
16158;DHT22;8184;60.256;18.694;2023-03-21T02:51:49;-1.60;99.90
16158;DHT22;8184;60.256;18.694;2023-03-21T02:54:22;-1.60;99.90
16158;DHT22;8184;60.256;18.694;2023-03-21T02:57:11;-1.60;99.90
16158;DHT22;8184;60.256;18.694;2023-03-21T02:59:39;-1.60;99.90
16158;DHT22;8184;60.256;18.694;2023-03-21T03:02:21;-1.60;99.90
16158;DHT22;8184;60.256;18.694;2023-03-21T03:04:50;-1.70;99.90
16158;DHT22;8184;60.256;18.694;2023-03-21T03:07:20;-1.60;99.90
16158;DHT22;8184;60.256;18.694;2023-03-21T03:09:57;-1.60;99.90
16158;DHT22;8184;60.256;18.694;2023-03-21T03:12:32;-1.60;99.90
16158;DHT22;8184;60.256;18.694;2023-03-21T03:15:04;-1.70;99.90
16158;DHT22;8184;60.256;18.694;2023-03-21T03:17:42;-1.70;99.90
16158;DHT22;8184;60.256;18.694;2023-03-21T03:20:18;-1.70;99.90
16158;DHT22;8184;60.256;18.694;2023-03-21T03:22:51;-1.70;99.90
16158;DHT22;8184;60.256;18.694;2023-03-21T03:25:25;-1.70;99.90
16158;DHT22;8184;60.256;18.694;2023-03-21T03:28:07;-1.70;99.90
16158;DHT22;8184;60.256;18.694;2023-03-21T03:30:36;-1.70;99.90
16158;DHT22;8184;60.256;18.694;2023-03-21T03:33:12;-1.70;99.90
16158;DHT22;8184;60.256;18.694;2023-03-21T03:35:42;-1.70;99.90
16158;DHT22;8184;60.256;18.694;2023-03-21T03:38:18;-1.70;99.90
16158;DHT22;8184;60.256;18.694;2023-03-21T03:40:50;-1.70;99.90
16158;DHT22;8184;60.256;18.694;2023-03-21T03:43:21;-1.80;99.90
16158;DHT22;8184;60.256;18.694;2023-03-21T03:45:52;-1.70;99.90
16158;DHT22;8184;60.256;18.694;2023-03-21T03:48:23;-1.70;99.90
16158;DHT22;8184;60.256;18.694;2023-03-21T03:50:56;-1.70;99.90
16158;DHT22;8184;60.256;18.694;2023-03-21T03:53:29;-1.70;99.90
16158;DHT22;8184;60.256;18.694;2023-03-21T03:56:02;-1.80;99.90
16158;DHT22;8184;60.256;18.694;2023-03-21T03:58:33;-1.80;99.90
16158;DHT22;8184;60.256;18.694;2023-03-21T04:01:11;-1.80;99.90
16158;DHT22;8184;60.256;18.694;2023-03-21T04:03:40;-1.80;99.90
16158;DHT22;8184;60.256;18.694;2023-03-21T04:06:18;-1.80;99.90
16158;DHT22;8184;60.256;18.694;2023-03-21T04:08:48;-1.90;99.90
16158;DHT22;8184;60.256;18.694;2023-03-21T04:11:18;-1.90;99.90
16158;DHT22;8184;60.256;18.694;2023-03-21T04:13:46;-1.80;99.90
16158;DHT22;8184;60.256;18.694;2023-03-21T04:16:15;-1.90;99.90
16158;DHT22;8184;60.256;18.694;2023-03-21T04:18:43;-1.90;99.90
16158;DHT22;8184;60.256;18.694;2023-03-21T04:21:12;-1.90;99.90
16158;DHT22;8184;60.256;18.694;2023-03-21T04:23:40;-1.90;99.90
16158;DHT22;8184;60.256;18.694;2023-03-21T04:26:09;-1.90;99.90
16158;DHT22;8184;60.256;18.694;2023-03-21T04:28:41;-2.00;99.90
16158;DHT22;8184;60.256;18.694;2023-03-21T04:31:12;-2.00;99.90
16158;DHT22;8184;60.256;18.694;2023-03-21T04:33:51;-1.90;99.90
16158;DHT22;8184;60.256;18.694;2023-03-21T04:36:21;-2.00;99.90
16158;DHT22;8184;60.256;18.694;2023-03-21T04:38:53;-1.90;99.90
16158;DHT22;8184;60.256;18.694;2023-03-21T04:41:23;-2.00;99.90
16158;DHT22;8184;60.256;18.694;2023-03-21T04:43:54;-2.00;99.90
16158;DHT22;8184;60.256;18.694;2023-03-21T04:46:23;-1.90;99.90
16158;DHT22;8184;60.256;18.694;2023-03-21T04:48:51;-1.90;99.90
16158;DHT22;8184;60.256;18.694;2023-03-21T04:51:20;-1.90;99.90
16158;DHT22;8184;60.256;18.694;2023-03-21T04:53:48;-2.00;99.90
16158;DHT22;8184;60.256;18.694;2023-03-21T04:56:18;-1.90;99.90
16158;DHT22;8184;60.256;18.694;2023-03-21T04:58:46;-1.90;99.90
16158;DHT22;8184;60.256;18.694;2023-03-21T05:01:20;-2.00;99.90
16158;DHT22;8184;60.256;18.694;2023-03-21T05:03:51;-2.00;99.90
16158;DHT22;8184;60.256;18.694;2023-03-21T05:06:21;-1.90;99.90
16158;DHT22;8184;60.256;18.694;2023-03-21T05:08:53;-1.90;99.90
16158;DHT22;8184;60.256;18.694;2023-03-21T05:11:26;-1.90;99.90
16158;DHT22;8184;60.256;18.694;2023-03-21T05:13:56;-1.90;99.90
16158;DHT22;8184;60.256;18.694;2023-03-21T05:16:26;-1.90;99.90
16158;DHT22;8184;60.256;18.694;2023-03-21T05:18:56;-1.90;99.90
16158;DHT22;8184;60.256;18.694;2023-03-21T05:21:24;-1.90;99.90
16158;DHT22;8184;60.256;18.694;2023-03-21T05:23:55;-1.90;99.90
16158;DHT22;8184;60.256;18.694;2023-03-21T05:26:24;-1.90;99.90
16158;DHT22;8184;60.256;18.694;2023-03-21T05:28:52;-2.00;99.90
16158;DHT22;8184;60.256;18.694;2023-03-21T05:31:20;-1.90;99.90
16158;DHT22;8184;60.256;18.694;2023-03-21T05:33:50;-1.90;99.90
16158;DHT22;8184;60.256;18.694;2023-03-21T05:36:21;-1.90;99.90
16158;DHT22;8184;60.256;18.694;2023-03-21T05:38:49;-1.90;99.90
16158;DHT22;8184;60.256;18.694;2023-03-21T05:41:18;-1.90;99.90
16158;DHT22;8184;60.256;18.694;2023-03-21T05:43:47;-1.90;99.90
16158;DHT22;8184;60.256;18.694;2023-03-21T05:46:15;-1.90;99.90
16158;DHT22;8184;60.256;18.694;2023-03-21T05:48:43;-1.90;99.90
16158;DHT22;8184;60.256;18.694;2023-03-21T05:51:13;-1.80;99.90
16158;DHT22;8184;60.256;18.694;2023-03-21T05:53:41;-1.80;99.90
16158;DHT22;8184;60.256;18.694;2023-03-21T05:56:09;-1.80;99.90
16158;DHT22;8184;60.256;18.694;2023-03-21T05:58:38;-1.80;99.90
16158;DHT22;8184;60.256;18.694;2023-03-21T06:01:06;-1.80;99.90
16158;DHT22;8184;60.256;18.694;2023-03-21T06:03:34;-1.80;99.90
16158;DHT22;8184;60.256;18.694;2023-03-21T06:06:03;-1.80;99.90
16158;DHT22;8184;60.256;18.694;2023-03-21T06:08:34;-1.70;99.90
16158;DHT22;8184;60.256;18.694;2023-03-21T06:11:02;-1.70;99.90
16158;DHT22;8184;60.256;18.694;2023-03-21T06:13:32;-1.70;99.90
16158;DHT22;8184;60.256;18.694;2023-03-21T06:16:00;-1.70;99.90
16158;DHT22;8184;60.256;18.694;2023-03-21T06:18:29;-1.60;99.90
16158;DHT22;8184;60.256;18.694;2023-03-21T06:20:57;-1.60;99.90
16158;DHT22;8184;60.256;18.694;2023-03-21T06:23:25;-1.50;99.90
16158;DHT22;8184;60.256;18.694;2023-03-21T06:25:55;-1.40;99.90
16158;DHT22;8184;60.256;18.694;2023-03-21T06:28:24;-1.30;99.90
16158;DHT22;8184;60.256;18.694;2023-03-21T06:30:52;-1.20;99.90
16158;DHT22;8184;60.256;18.694;2023-03-21T06:33:20;-1.20;99.90
16158;DHT22;8184;60.256;18.694;2023-03-21T06:35:52;-1.10;99.90
16158;DHT22;8184;60.256;18.694;2023-03-21T06:38:20;-1.00;99.90
16158;DHT22;8184;60.256;18.694;2023-03-21T06:40:49;-0.80;99.90
16158;DHT22;8184;60.256;18.694;2023-03-21T06:43:19;-0.70;99.90
16158;DHT22;8184;60.256;18.694;2023-03-21T06:45:47;-0.60;99.90
16158;DHT22;8184;60.256;18.694;2023-03-21T06:48:15;-0.50;99.90
16158;DHT22;8184;60.256;18.694;2023-03-21T06:50:43;-0.50;99.90
16158;DHT22;8184;60.256;18.694;2023-03-21T06:53:12;-0.20;99.90
16158;DHT22;8184;60.256;18.694;2023-03-21T06:55:40;-0.20;99.90
16158;DHT22;8184;60.256;18.694;2023-03-21T06:58:08;0.00;99.90
16158;DHT22;8184;60.256;18.694;2023-03-21T07:00:38;0.00;99.90
16158;DHT22;8184;60.256;18.694;2023-03-21T07:03:08;-0.20;99.90
16158;DHT22;8184;60.256;18.694;2023-03-21T07:05:36;-0.20;99.90
16158;DHT22;8184;60.256;18.694;2023-03-21T07:08:05;-0.20;99.90
16158;DHT22;8184;60.256;18.694;2023-03-21T07:10:37;-0.20;99.90
16158;DHT22;8184;60.256;18.694;2023-03-21T07:13:06;-0.30;99.90
16158;DHT22;8184;60.256;18.694;2023-03-21T07:15:34;-0.20;99.90
16158;DHT22;8184;60.256;18.694;2023-03-21T07:18:06;-0.20;99.90
16158;DHT22;8184;60.256;18.694;2023-03-21T07:20:35;-0.10;99.90
16158;DHT22;8184;60.256;18.694;2023-03-21T07:23:04;0.00;99.90
16158;DHT22;8184;60.256;18.694;2023-03-21T07:25:32;0.10;99.90
16158;DHT22;8184;60.256;18.694;2023-03-21T07:28:01;0.00;99.90
16158;DHT22;8184;60.256;18.694;2023-03-21T07:30:32;0.10;99.90
16158;DHT22;8184;60.256;18.694;2023-03-21T07:33:00;0.10;99.90
16158;DHT22;8184;60.256;18.694;2023-03-21T07:35:30;0.20;99.90
16158;DHT22;8184;60.256;18.694;2023-03-21T07:37:58;0.40;99.90
16158;DHT22;8184;60.256;18.694;2023-03-21T07:40:26;0.40;99.90
16158;DHT22;8184;60.256;18.694;2023-03-21T07:42:54;0.40;99.90
16158;DHT22;8184;60.256;18.694;2023-03-21T07:45:23;0.50;99.90
16158;DHT22;8184;60.256;18.694;2023-03-21T07:47:53;0.50;99.90
16158;DHT22;8184;60.256;18.694;2023-03-21T07:50:21;0.60;99.90
16158;DHT22;8184;60.256;18.694;2023-03-21T07:52:50;0.70;99.90
16158;DHT22;8184;60.256;18.694;2023-03-21T07:55:19;0.80;99.90
16158;DHT22;8184;60.256;18.694;2023-03-21T07:57:48;0.80;99.90
16158;DHT22;8184;60.256;18.694;2023-03-21T08:00:17;0.90;99.90
16158;DHT22;8184;60.256;18.694;2023-03-21T08:02:49;1.00;99.90
16158;DHT22;8184;60.256;18.694;2023-03-21T08:05:25;1.10;99.90
16158;DHT22;8184;60.256;18.694;2023-03-21T08:07:55;1.20;99.90
16158;DHT22;8184;60.256;18.694;2023-03-21T08:10:24;1.20;99.90
16158;DHT22;8184;60.256;18.694;2023-03-21T08:12:52;1.20;99.90
16158;DHT22;8184;60.256;18.694;2023-03-21T08:15:21;1.20;99.90
16158;DHT22;8184;60.256;18.694;2023-03-21T08:17:49;1.40;99.90
16158;DHT22;8184;60.256;18.694;2023-03-21T08:20:18;1.50;99.90
16158;DHT22;8184;60.256;18.694;2023-03-21T08:22:48;1.50;99.90
16158;DHT22;8184;60.256;18.694;2023-03-21T08:25:19;1.60;99.90
16158;DHT22;8184;60.256;18.694;2023-03-21T08:27:48;1.60;99.90
16158;DHT22;8184;60.256;18.694;2023-03-21T08:30:17;1.60;99.90
16158;DHT22;8184;60.256;18.694;2023-03-21T08:32:46;1.80;99.90
16158;DHT22;8184;60.256;18.694;2023-03-21T08:35:15;1.90;99.90
16158;DHT22;8184;60.256;18.694;2023-03-21T08:37:44;2.10;99.90
16158;DHT22;8184;60.256;18.694;2023-03-21T08:40:15;2.10;99.90
16158;DHT22;8184;60.256;18.694;2023-03-21T08:42:46;2.20;99.90
16158;DHT22;8184;60.256;18.694;2023-03-21T08:45:15;2.10;99.90
16158;DHT22;8184;60.256;18.694;2023-03-21T08:47:43;2.20;99.90
16158;DHT22;8184;60.256;18.694;2023-03-21T08:50:13;2.30;99.90
16158;DHT22;8184;60.256;18.694;2023-03-21T08:52:42;2.40;99.90
16158;DHT22;8184;60.256;18.694;2023-03-21T08:55:11;2.40;99.90
16158;DHT22;8184;60.256;18.694;2023-03-21T08:57:39;2.50;99.90
16158;DHT22;8184;60.256;18.694;2023-03-21T09:00:10;2.50;99.90
16158;DHT22;8184;60.256;18.694;2023-03-21T09:02:40;2.60;99.90
16158;DHT22;8184;60.256;18.694;2023-03-21T09:05:09;2.60;99.90
16158;DHT22;8184;60.256;18.694;2023-03-21T09:07:38;2.70;99.90
16158;DHT22;8184;60.256;18.694;2023-03-21T09:10:08;2.90;99.90
16158;DHT22;8184;60.256;18.694;2023-03-21T09:12:47;2.90;99.90
16158;DHT22;8184;60.256;18.694;2023-03-21T09:15:17;2.90;99.90
16158;DHT22;8184;60.256;18.694;2023-03-21T09:17:47;2.90;99.90
16158;DHT22;8184;60.256;18.694;2023-03-21T09:20:18;3.00;99.90
16158;DHT22;8184;60.256;18.694;2023-03-21T09:22:49;3.20;99.90
16158;DHT22;8184;60.256;18.694;2023-03-21T09:25:17;3.40;99.90
16158;DHT22;8184;60.256;18.694;2023-03-21T09:27:47;3.30;99.90
16158;DHT22;8184;60.256;18.694;2023-03-21T09:30:17;3.30;99.90
16158;DHT22;8184;60.256;18.694;2023-03-21T09:32:46;3.30;99.90
16158;DHT22;8184;60.256;18.694;2023-03-21T09:35:16;3.40;99.90
16158;DHT22;8184;60.256;18.694;2023-03-21T09:37:45;3.50;99.90
16158;DHT22;8184;60.256;18.694;2023-03-21T09:40:15;3.60;99.90
16158;DHT22;8184;60.256;18.694;2023-03-21T09:42:48;3.60;99.90
16158;DHT22;8184;60.256;18.694;2023-03-21T09:45:21;3.70;99.90
16158;DHT22;8184;60.256;18.694;2023-03-21T09:47:52;3.70;99.90
16158;DHT22;8184;60.256;18.694;2023-03-21T09:50:23;3.80;99.90
16158;DHT22;8184;60.256;18.694;2023-03-21T09:52:54;4.00;99.90
16158;DHT22;8184;60.256;18.694;2023-03-21T09:55:24;4.00;99.90
16158;DHT22;8184;60.256;18.694;2023-03-21T09:57:59;4.00;99.90
16158;DHT22;8184;60.256;18.694;2023-03-21T10:00:32;4.00;99.90
16158;DHT22;8184;60.256;18.694;2023-03-21T10:03:02;4.00;99.90
16158;DHT22;8184;60.256;18.694;2023-03-21T10:05:32;4.10;99.90
16158;DHT22;8184;60.256;18.694;2023-03-21T10:08:05;4.20;99.90
16158;DHT22;8184;60.256;18.694;2023-03-21T10:10:36;4.30;99.90
16158;DHT22;8184;60.256;18.694;2023-03-21T10:13:10;4.40;99.90
16158;DHT22;8184;60.256;18.694;2023-03-21T10:15:42;4.40;99.90
16158;DHT22;8184;60.256;18.694;2023-03-21T10:18:11;4.50;99.90
16158;DHT22;8184;60.256;18.694;2023-03-21T10:20:40;4.50;99.90
16158;DHT22;8184;60.256;18.694;2023-03-21T10:23:11;4.60;99.90
16158;DHT22;8184;60.256;18.694;2023-03-21T10:25:40;4.70;99.90
16158;DHT22;8184;60.256;18.694;2023-03-21T10:28:11;4.60;99.90
16158;DHT22;8184;60.256;18.694;2023-03-21T10:30:42;4.70;99.90
16158;DHT22;8184;60.256;18.694;2023-03-21T10:33:12;4.80;99.90
16158;DHT22;8184;60.256;18.694;2023-03-21T10:35:42;4.80;99.90
16158;DHT22;8184;60.256;18.694;2023-03-21T10:38:16;5.00;99.90
16158;DHT22;8184;60.256;18.694;2023-03-21T10:40:45;5.20;99.90
16158;DHT22;8184;60.256;18.694;2023-03-21T10:43:18;5.20;99.90
16158;DHT22;8184;60.256;18.694;2023-03-21T10:45:48;5.20;99.90
16158;DHT22;8184;60.256;18.694;2023-03-21T10:48:17;5.20;99.90
16158;DHT22;8184;60.256;18.694;2023-03-21T10:50:46;5.30;99.90
16158;DHT22;8184;60.256;18.694;2023-03-21T10:53:16;5.40;99.90
16158;DHT22;8184;60.256;18.694;2023-03-21T10:55:45;5.60;99.90
16158;DHT22;8184;60.256;18.694;2023-03-21T10:58:17;5.60;99.90
16158;DHT22;8184;60.256;18.694;2023-03-21T11:00:54;5.60;99.90
16158;DHT22;8184;60.256;18.694;2023-03-21T11:03:26;5.60;99.90
16158;DHT22;8184;60.256;18.694;2023-03-21T11:05:58;5.70;99.90
16158;DHT22;8184;60.256;18.694;2023-03-21T11:08:27;5.80;99.90
16158;DHT22;8184;60.256;18.694;2023-03-21T11:10:59;5.80;99.90
16158;DHT22;8184;60.256;18.694;2023-03-21T11:13:32;5.70;99.90
16158;DHT22;8184;60.256;18.694;2023-03-21T11:16:04;5.50;99.90
16158;DHT22;8184;60.256;18.694;2023-03-21T11:18:33;5.60;99.90
16158;DHT22;8184;60.256;18.694;2023-03-21T11:21:09;5.50;99.90
16158;DHT22;8184;60.256;18.694;2023-03-21T11:23:39;5.60;99.90
16158;DHT22;8184;60.256;18.694;2023-03-21T11:26:10;5.60;99.90
16158;DHT22;8184;60.256;18.694;2023-03-21T11:28:39;5.70;99.90
16158;DHT22;8184;60.256;18.694;2023-03-21T11:31:09;5.70;99.90
16158;DHT22;8184;60.256;18.694;2023-03-21T11:33:38;5.80;99.90
16158;DHT22;8184;60.256;18.694;2023-03-21T11:36:23;5.80;99.90
16158;DHT22;8184;60.256;18.694;2023-03-21T11:38:56;6.00;99.90
16158;DHT22;8184;60.256;18.694;2023-03-21T11:41:28;6.10;99.90
16158;DHT22;8184;60.256;18.694;2023-03-21T11:43:57;6.10;99.90
16158;DHT22;8184;60.256;18.694;2023-03-21T11:46:27;6.10;99.90
16158;DHT22;8184;60.256;18.694;2023-03-21T11:48:56;6.20;99.90
16158;DHT22;8184;60.256;18.694;2023-03-21T11:51:26;6.30;99.90
16158;DHT22;8184;60.256;18.694;2023-03-21T11:54:01;6.40;99.90
16158;DHT22;8184;60.256;18.694;2023-03-21T11:56:34;6.40;99.90
16158;DHT22;8184;60.256;18.694;2023-03-21T11:59:09;6.40;99.90
16158;DHT22;8184;60.256;18.694;2023-03-21T12:01:45;6.50;99.90
16158;DHT22;8184;60.256;18.694;2023-03-21T12:04:19;6.50;99.90
16158;DHT22;8184;60.256;18.694;2023-03-21T12:06:49;6.60;99.90
16158;DHT22;8184;60.256;18.694;2023-03-21T12:09:33;6.60;99.90
16158;DHT22;8184;60.256;18.694;2023-03-21T12:12:05;6.60;99.90
16158;DHT22;8184;60.256;18.694;2023-03-21T12:14:39;6.60;99.90
16158;DHT22;8184;60.256;18.694;2023-03-21T12:17:12;6.60;99.90
16158;DHT22;8184;60.256;18.694;2023-03-21T12:19:52;6.40;99.90
16158;DHT22;8184;60.256;18.694;2023-03-21T12:22:24;6.50;99.90
16158;DHT22;8184;60.256;18.694;2023-03-21T12:24:55;6.60;99.90
16158;DHT22;8184;60.256;18.694;2023-03-21T12:27:27;6.60;99.90
16158;DHT22;8184;60.256;18.694;2023-03-21T12:30:02;6.70;99.90
16158;DHT22;8184;60.256;18.694;2023-03-21T12:32:39;6.80;99.90
16158;DHT22;8184;60.256;18.694;2023-03-21T12:35:21;6.80;99.90
16158;DHT22;8184;60.256;18.694;2023-03-21T12:37:56;6.80;99.90
16158;DHT22;8184;60.256;18.694;2023-03-21T12:40:34;6.80;99.90
16158;DHT22;8184;60.256;18.694;2023-03-21T12:43:12;6.90;99.90
16158;DHT22;8184;60.256;18.694;2023-03-21T12:45:49;7.10;99.90
16158;DHT22;8184;60.256;18.694;2023-03-21T12:48:21;7.00;99.90
16158;DHT22;8184;60.256;18.694;2023-03-21T12:50:54;7.10;99.90
16158;DHT22;8184;60.256;18.694;2023-03-21T12:53:26;7.10;99.90
16158;DHT22;8184;60.256;18.694;2023-03-21T12:55:57;7.00;99.90
16158;DHT22;8184;60.256;18.694;2023-03-21T12:58:27;7.10;99.90
16158;DHT22;8184;60.256;18.694;2023-03-21T13:00:56;7.20;99.90
16158;DHT22;8184;60.256;18.694;2023-03-21T13:03:29;7.30;99.90
16158;DHT22;8184;60.256;18.694;2023-03-21T13:06:06;7.30;99.90
16158;DHT22;8184;60.256;18.694;2023-03-21T13:08:36;7.30;99.90
16158;DHT22;8184;60.256;18.694;2023-03-21T13:11:09;7.50;99.90
16158;DHT22;8184;60.256;18.694;2023-03-21T13:13:41;7.60;99.90
16158;DHT22;8184;60.256;18.694;2023-03-21T13:16:11;7.60;99.90
16158;DHT22;8184;60.256;18.694;2023-03-21T13:18:46;7.60;99.90
16158;DHT22;8184;60.256;18.694;2023-03-21T13:21:17;7.60;99.90
16158;DHT22;8184;60.256;18.694;2023-03-21T13:23:56;7.50;99.90
16158;DHT22;8184;60.256;18.694;2023-03-21T13:26:31;7.50;99.90
16158;DHT22;8184;60.256;18.694;2023-03-21T13:28:59;7.40;99.90
16158;DHT22;8184;60.256;18.694;2023-03-21T13:31:27;7.30;99.90
16158;DHT22;8184;60.256;18.694;2023-03-21T13:34:18;7.40;99.90
16158;DHT22;8184;60.256;18.694;2023-03-21T13:36:49;7.40;99.90
16158;DHT22;8184;60.256;18.694;2023-03-21T13:39:18;7.50;99.90
16158;DHT22;8184;60.256;18.694;2023-03-21T13:41:47;7.60;99.90
16158;DHT22;8184;60.256;18.694;2023-03-21T13:44:18;7.40;99.90
16158;DHT22;8184;60.256;18.694;2023-03-21T13:46:51;7.40;99.90
16158;DHT22;8184;60.256;18.694;2023-03-21T13:49:29;7.40;99.90
16158;DHT22;8184;60.256;18.694;2023-03-21T13:51:58;7.50;99.90
16158;DHT22;8184;60.256;18.694;2023-03-21T13:54:43;7.50;99.90
16158;DHT22;8184;60.256;18.694;2023-03-21T13:57:21;7.60;99.90
16158;DHT22;8184;60.256;18.694;2023-03-21T13:59:51;7.50;99.90
16158;DHT22;8184;60.256;18.694;2023-03-21T14:02:48;7.40;99.90
16158;DHT22;8184;60.256;18.694;2023-03-21T14:05:19;7.50;99.90
16158;DHT22;8184;60.256;18.694;2023-03-21T14:07:48;7.60;99.90
16158;DHT22;8184;60.256;18.694;2023-03-21T14:10:21;7.60;99.90
16158;DHT22;8184;60.256;18.694;2023-03-21T14:12:52;7.50;99.90
16158;DHT22;8184;60.256;18.694;2023-03-21T14:15:22;7.50;99.90
16158;DHT22;8184;60.256;18.694;2023-03-21T14:17:51;7.40;99.90
16158;DHT22;8184;60.256;18.694;2023-03-21T14:20:23;7.30;99.90
16158;DHT22;8184;60.256;18.694;2023-03-21T14:22:58;7.30;99.90
16158;DHT22;8184;60.256;18.694;2023-03-21T14:25:31;7.00;99.90
16158;DHT22;8184;60.256;18.694;2023-03-21T14:28:12;6.80;99.90
16158;DHT22;8184;60.256;18.694;2023-03-21T14:30:41;6.70;99.90
16158;DHT22;8184;60.256;18.694;2023-03-21T14:33:12;6.60;99.90
16158;DHT22;8184;60.256;18.694;2023-03-21T14:35:45;6.80;99.90
16158;DHT22;8184;60.256;18.694;2023-03-21T14:38:18;6.80;99.90
16158;DHT22;8184;60.256;18.694;2023-03-21T14:40:47;6.80;99.90
16158;DHT22;8184;60.256;18.694;2023-03-21T14:43:16;6.70;99.90
16158;DHT22;8184;60.256;18.694;2023-03-21T14:45:48;6.80;99.90
16158;DHT22;8184;60.256;18.694;2023-03-21T14:48:19;6.70;99.90
16158;DHT22;8184;60.256;18.694;2023-03-21T14:50:49;6.80;99.90
16158;DHT22;8184;60.256;18.694;2023-03-21T14:53:20;6.70;99.90
16158;DHT22;8184;60.256;18.694;2023-03-21T14:55:49;6.50;99.90
16158;DHT22;8184;60.256;18.694;2023-03-21T14:58:18;6.60;99.90
16158;DHT22;8184;60.256;18.694;2023-03-21T15:00:47;6.70;99.90
16158;DHT22;8184;60.256;18.694;2023-03-21T15:03:17;6.70;99.90
16158;DHT22;8184;60.256;18.694;2023-03-21T15:05:45;6.50;99.90
16158;DHT22;8184;60.256;18.694;2023-03-21T15:08:16;6.40;99.90
16158;DHT22;8184;60.256;18.694;2023-03-21T15:10:52;6.50;99.90
16158;DHT22;8184;60.256;18.694;2023-03-21T15:13:32;6.50;99.90
16158;DHT22;8184;60.256;18.694;2023-03-21T15:16:01;6.50;99.90
16158;DHT22;8184;60.256;18.694;2023-03-21T15:18:31;6.50;99.90
16158;DHT22;8184;60.256;18.694;2023-03-21T15:21:01;6.50;99.90
16158;DHT22;8184;60.256;18.694;2023-03-21T15:23:32;6.50;99.90
16158;DHT22;8184;60.256;18.694;2023-03-21T15:26:02;6.50;99.90
16158;DHT22;8184;60.256;18.694;2023-03-21T15:28:31;6.40;99.90
16158;DHT22;8184;60.256;18.694;2023-03-21T15:31:00;6.40;99.90
16158;DHT22;8184;60.256;18.694;2023-03-21T15:33:29;6.30;99.90
16158;DHT22;8184;60.256;18.694;2023-03-21T15:35:58;6.30;99.90
16158;DHT22;8184;60.256;18.694;2023-03-21T15:38:27;6.20;99.90
16158;DHT22;8184;60.256;18.694;2023-03-21T15:41:14;6.20;99.90
16158;DHT22;8184;60.256;18.694;2023-03-21T15:43:45;6.20;99.90
16158;DHT22;8184;60.256;18.694;2023-03-21T15:46:14;6.20;99.90
16158;DHT22;8184;60.256;18.694;2023-03-21T15:48:43;6.10;99.90
16158;DHT22;8184;60.256;18.694;2023-03-21T15:51:13;6.20;99.90
16158;DHT22;8184;60.256;18.694;2023-03-21T15:53:42;6.10;99.90
16158;DHT22;8184;60.256;18.694;2023-03-21T15:56:11;6.10;99.90
16158;DHT22;8184;60.256;18.694;2023-03-21T15:58:44;6.00;99.90
16158;DHT22;8184;60.256;18.694;2023-03-21T16:01:14;5.90;99.90
16158;DHT22;8184;60.256;18.694;2023-03-21T16:03:43;5.90;99.90
16158;DHT22;8184;60.256;18.694;2023-03-21T16:06:15;6.00;99.90
16158;DHT22;8184;60.256;18.694;2023-03-21T16:08:47;5.90;99.90
16158;DHT22;8184;60.256;18.694;2023-03-21T16:11:16;5.80;99.90